Terminal Aerodrome Forecast
Issued by NWS Jackson, MS

Home | Current Version | Previous Version | Text Only | Print | Product List | Glossary On
Versions: 1 2 3 4 5 6 7 8 9 10 11 12 13
000
FTUS44 KJAN 280400 AAA
TAFGLH
TAF AMD
KGLH 280418Z 2804/2824 35012KT 6SM -RA BR BKN007 OVC012
     FM280800 35014G20KT P6SM -RA OVC005
     FM281400 36011KT 3SM -RA BR OVC009=

USA.gov is the U.S. government's official web portal to all federal, state and local government web resources and services.